Time;durP1;ratioP1;P1;durP2;ratioP2;P2;SDS_P1;SDS_P2;PMS_P1;PMS_P2;Temp;Humidity;BMP_temperature;BMP_pressure;BME280_temperature;BME280_humidity;BME280_pressure;Samples;Min_cycle;Max_cycle;Signal;HPM_P1;HPM_P2
2024/02/14 00:00:01;;;;;;;;;;;;;;;21.58;27.87;97382.88;5006744;28;1894;-80
2024/02/14 00:02:30;;;;;;;;;;;;;;;21.52;27.96;97375.44;5022780;28;1502;-80
2024/02/14 00:04:55;;;;;;;;;;;;;;;21.71;27.91;97368.66;5026385;28;1017;-80
2024/02/14 00:07:21;;;;;;;;;;;;;;;21.63;27.97;97373.00;5028121;28;1100;-80
2024/02/14 00:09:47;;;;;;;;;;;;;;;21.56;27.80;97378.94;4998249;28;1567;-80
2024/02/14 00:12:12;;;;;;;;;;;;;;;21.60;27.98;97376.75;4967822;28;1032;-80
2024/02/14 00:14:38;;;;;;;;;;;;;;;21.46;28.21;97368.78;4950458;29;953;-80
2024/02/14 00:17:04;;;;;;;;;;;;;;;21.64;28.10;97374.56;4951762;28;1122;-79
2024/02/14 00:19:30;;;;;;;;;;;;;;;21.73;27.91;97380.31;4966076;29;1907;-79
2024/02/14 00:21:56;;;;;;;;;;;;;;;21.49;28.30;97384.84;4951822;29;966;-80
2024/02/14 00:24:23;;;;;;;;;;;;;;;21.12;28.69;97380.84;4946202;29;1456;-80
2024/02/14 00:26:49;;;;;;;;;;;;;;;20.97;28.56;97389.03;4932521;29;839;-80
2024/02/14 00:29:15;;;;;;;;;;;;;;;21.23;28.81;97384.88;4931224;29;1163;-80
2024/02/14 00:31:43;;;;;;;;;;;;;;;21.71;27.80;97391.31;4948809;29;979;-80
2024/02/14 00:34:08;;;;;;;;;;;;;;;21.59;27.82;97390.09;4931971;29;1131;-80
2024/02/14 00:36:34;;;;;;;;;;;;;;;21.81;27.75;97395.81;4932594;29;990;-80
2024/02/14 00:38:59;;;;;;;;;;;;;;;21.74;27.70;97396.03;4950660;29;1883;-80
2024/02/14 00:41:29;;;;;;;;;;;;;;;21.71;27.65;97393.34;4936813;29;992;-80
2024/02/14 00:43:58;;;;;;;;;;;;;;;21.32;28.26;97398.38;4962638;28;915;-80
2024/02/14 00:46:23;;;;;;;;;;;;;;;21.12;28.37;97395.78;4971070;28;1007;-80
2024/02/14 00:48:49;;;;;;;;;;;;;;;21.49;28.13;97396.16;4951745;28;887;-79
2024/02/14 00:51:14;;;;;;;;;;;;;;;21.69;27.64;97396.63;4987002;28;1065;-80
2024/02/14 00:53:40;;;;;;;;;;;;;;;21.67;27.88;97396.31;4968355;28;1381;-80
2024/02/14 00:56:06;;;;;;;;;;;;;;;21.83;27.60;97398.94;4994683;28;953;-80
2024/02/14 00:58:31;;;;;;;;;;;;;;;21.79;27.71;97398.28;5025570;28;956;-80
2024/02/14 01:00:57;;;;;;;;;;;;;;;21.45;27.92;97398.31;5027836;28;1890;-80
2024/02/14 01:03:23;;;;;;;;;;;;;;;21.56;27.85;97402.38;5024434;28;1175;-80
2024/02/14 01:05:48;;;;;;;;;;;;;;;21.12;28.52;97395.78;5026708;28;949;-79
2024/02/14 01:08:14;;;;;;;;;;;;;;;21.37;28.28;97405.50;5006249;28;1596;-80
2024/02/14 01:10:40;;;;;;;;;;;;;;;21.73;27.76;97399.34;5003360;28;1454;-78
2024/02/14 01:13:06;;;;;;;;;;;;;;;21.81;27.78;97397.81;4972116;28;1707;-80
2024/02/14 01:15:33;;;;;;;;;;;;;;;21.71;27.65;97402.66;4989449;28;873;-80
2024/02/14 01:17:58;;;;;;;;;;;;;;;21.66;27.84;97406.06;4972790;28;920;-80
2024/02/14 01:20:24;;;;;;;;;;;;;;;21.03;28.62;97409.84;5005111;28;1962;-80
2024/02/14 01:22:50;;;;;;;;;;;;;;;21.30;27.81;97407.31;4988511;28;1529;-80
2024/02/14 01:25:15;;;;;;;;;;;;;;;21.53;27.40;97411.75;5003161;28;1432;-80
2024/02/14 01:27:42;;;;;;;;;;;;;;;21.72;27.64;97404.22;4986476;28;1343;-80
2024/02/14 01:30:09;;;;;;;;;;;;;;;21.18;28.35;97410.94;4969103;28;1644;-80
2024/02/14 01:32:34;;;;;;;;;;;;;;;21.63;27.61;97417.50;4938045;28;1259;-80
2024/02/14 01:35:00;;;;;;;;;;;;;;;21.70;27.72;97415.19;4952884;28;1270;-80
2024/02/14 01:37:26;;;;;;;;;;;;;;;21.56;27.66;97418.56;4947730;29;913;-80
2024/02/14 01:39:52;;;;;;;;;;;;;;;21.62;27.27;97416.72;4915752;29;1949;-80
2024/02/14 01:42:17;;;;;;;;;;;;;;;21.44;27.34;97410.88;4957764;29;910;-80
2024/02/14 01:44:43;;;;;;;;;;;;;;;21.37;27.68;97411.16;4965032;29;1032;-80
2024/02/14 01:47:09;;;;;;;;;;;;;;;21.41;27.63;97418.28;4951514;29;1239;-81
2024/02/14 01:49:36;;;;;;;;;;;;;;;21.52;27.71;97410.19;4966036;29;944;-80
2024/02/14 01:52:02;;;;;;;;;;;;;;;21.72;27.20;97415.53;4966809;29;984;-80
2024/02/14 01:54:28;;;;;;;;;;;;;;;21.07;27.95;97410.50;4940007;28;1568;-80
2024/02/14 01:56:54;;;;;;;;;;;;;;;21.25;28.10;97416.38;4950481;29;979;-79
2024/02/14 01:59:19;;;;;;;;;;;;;;;21.11;28.07;97416.84;4945961;29;1887;-80
2024/02/14 02:01:45;;;;;;;;;;;;;;;21.30;27.74;97418.66;4929800;29;1540;-80
2024/02/14 02:04:11;;;;;;;;;;;;;;;21.60;27.35;97419.19;4930972;29;916;-80
2024/02/14 02:06:37;;;;;;;;;;;;;;;21.71;27.24;97415.97;4948149;29;1018;-80
2024/02/14 02:09:02;;;;;;;;;;;;;;;21.69;27.13;97424.16;4931080;29;936;-80
2024/02/14 02:11:28;;;;;;;;;;;;;;;21.80;26.81;97428.19;4926972;29;909;-80
2024/02/14 02:13:55;;;;;;;;;;;;;;;21.52;27.32;97417.88;4926915;29;1530;-80
2024/02/14 02:16:21;;;;;;;;;;;;;;;21.49;27.46;97430.13;4912515;29;1149;-80
2024/02/14 02:18:48;;;;;;;;;;;;;;;21.42;27.42;97427.56;4910762;29;1915;-81
2024/02/14 02:21:14;;;;;;;;;;;;;;;21.47;27.62;97427.75;4922348;29;1483;-80
2024/02/14 02:23:41;;;;;;;;;;;;;;;21.78;27.04;97424.25;4888230;29;947;-80
2024/02/14 02:26:07;;;;;;;;;;;;;;;21.41;27.59;97428.81;4875454;29;1071;-80
2024/02/14 02:28:32;;;;;;;;;;;;;;;21.56;27.33;97435.56;4856212;29;1528;-80
2024/02/14 02:30:58;;;;;;;;;;;;;;;21.40;27.83;97438.53;4934934;29;844;-80
2024/02/14 02:33:23;;;;;;;;;;;;;;;21.44;27.57;97433.53;4908401;29;995;-80
2024/02/14 02:35:49;;;;;;;;;;;;;;;21.35;27.40;97430.59;4928337;29;1156;-80
2024/02/14 02:38:16;;;;;;;;;;;;;;;21.24;27.79;97442.28;4925027;29;1016;-80
2024/02/14 02:40:41;;;;;;;;;;;;;;;21.61;27.28;97443.47;4910941;29;1948;-80
2024/02/14 02:43:07;;;;;;;;;;;;;;;21.74;27.25;97452.69;4906789;29;1193;-80
2024/02/14 02:45:33;;;;;;;;;;;;;;;21.88;27.13;97442.09;4908499;29;975;-80
2024/02/14 02:48:00;;;;;;;;;;;;;;;21.68;27.02;97442.41;4906458;29;1710;-79
2024/02/14 02:50:26;;;;;;;;;;;;;;;21.64;27.42;97451.00;4892920;29;1453;-80
2024/02/14 02:52:51;;;;;;;;;;;;;;;21.55;27.34;97456.59;4907033;29;1066;-80
2024/02/14 02:55:17;;;;;;;;;;;;;;;21.18;27.68;97456.19;4920319;29;916;-80
2024/02/14 02:57:43;;;;;;;;;;;;;;;21.27;27.71;97459.13;4926140;29;973;-80
2024/02/14 03:00:09;;;;;;;;;;;;;;;21.48;27.71;97454.03;4909400;29;2082;-80
2024/02/14 03:02:38;;;;;;;;;;;;;;;21.55;27.73;97450.94;4927446;29;902;-81
2024/02/14 03:05:04;;;;;;;;;;;;;;;21.60;27.64;97464.50;4955477;28;968;-80
2024/02/14 03:07:29;;;;;;;;;;;;;;;21.67;27.64;97457.81;4949217;29;1073;-79
2024/02/14 03:09:55;;;;;;;;;;;;;;;21.73;27.15;97468.09;4950433;28;1438;-80
2024/02/14 03:12:22;;;;;;;;;;;;;;;21.37;27.94;97462.88;4965316;28;1485;-80
2024/02/14 03:14:49;;;;;;;;;;;;;;;21.38;27.65;97461.63;4935781;29;1312;-80
2024/02/14 03:17:15;;;;;;;;;;;;;;;21.26;28.03;97462.44;4965981;29;985;-80
2024/02/14 03:19:40;;;;;;;;;;;;;;;21.28;27.88;97472.03;4948941;29;1952;-80
2024/02/14 03:22:08;;;;;;;;;;;;;;;21.70;27.32;97463.34;4949564;29;1145;-80
2024/02/14 03:24:35;;;;;;;;;;;;;;;21.73;27.14;97473.75;4979543;28;988;-80
2024/02/14 03:27:01;;;;;;;;;;;;;;;21.47;27.55;97472.25;4970885;28;1404;-80
2024/02/14 03:29:26;;;;;;;;;;;;;;;21.44;27.17;97473.94;4970441;28;1082;-80
2024/02/14 03:31:53;;;;;;;;;;;;;;;21.43;27.43;97477.25;4988000;28;1097;-80
2024/02/14 03:34:19;;;;;;;;;;;;;;;21.65;27.54;97477.28;4986532;28;1065;-80
2024/02/14 03:36:45;;;;;;;;;;;;;;;21.77;26.99;97482.91;4987706;28;1032;-80
2024/02/14 03:39:10;;;;;;;;;;;;;;;21.72;27.12;97477.84;4953511;28;1954;-80
2024/02/14 03:41:37;;;;;;;;;;;;;;;21.91;27.07;97483.66;4955269;28;1544;-80
2024/02/14 03:44:03;;;;;;;;;;;;;;;21.69;26.98;97490.06;4983113;28;1367;-80
2024/02/14 03:46:30;;;;;;;;;;;;;;;21.12;27.65;97480.66;5010627;28;1374;-80
2024/02/14 03:48:55;;;;;;;;;;;;;;;21.06;27.79;97482.47;4983986;28;1430;-80
2024/02/14 03:51:23;;;;;;;;;;;;;;;21.17;28.11;97488.56;4963800;28;1312;-80
2024/02/14 03:53:48;;;;;;;;;;;;;;;21.42;27.55;97475.66;4979474;28;1532;-80
2024/02/14 03:56:14;;;;;;;;;;;;;;;21.63;27.38;97486.25;4987355;28;1444;-80
2024/02/14 03:58:40;;;;;;;;;;;;;;;21.71;27.11;97481.94;4968469;28;953;-79
2024/02/14 04:01:05;;;;;;;;;;;;;;;21.79;27.02;97491.72;4971952;28;1891;-80
2024/02/14 04:03:31;;;;;;;;;;;;;;;21.50;27.26;97493.97;4983914;28;1455;-80
2024/02/14 04:05:56;;;;;;;;;;;;;;;21.39;27.13;97496.38;4946937;29;1388;-80
2024/02/14 04:08:22;;;;;;;;;;;;;;;21.36;27.32;97500.94;4942393;29;1678;-80
2024/02/14 04:10:50;;;;;;;;;;;;;;;21.68;27.00;97505.47;4948588;29;1001;-79
2024/02/14 04:13:16;;;;;;;;;;;;;;;21.73;27.13;97506.94;4908244;29;996;-80
2024/02/14 04:15:42;;;;;;;;;;;;;;;21.73;27.18;97507.72;4910624;29;989;-80
2024/02/14 04:18:08;;;;;;;;;;;;;;;21.77;26.99;97499.91;4908795;29;927;-80
2024/02/14 04:20:34;;;;;;;;;;;;;;;21.51;27.34;97501.25;4939291;29;1906;-79
2024/02/14 04:22:59;;;;;;;;;;;;;;;21.52;27.14;97508.47;4879878;29;1544;-79
2024/02/14 04:25:25;;;;;;;;;;;;;;;21.04;27.86;97513.28;4876435;29;1300;-80
2024/02/14 04:27:51;;;;;;;;;;;;;;;21.16;27.57;97515.28;4905107;29;1335;-81
2024/02/14 04:30:16;;;;;;;;;;;;;;;21.38;27.37;97514.59;4879833;29;1524;-81
2024/02/14 04:32:43;;;;;;;;;;;;;;;21.66;27.26;97513.66;4875405;29;1424;-81
2024/02/14 04:35:09;;;;;;;;;;;;;;;21.51;27.41;97521.06;4871479;29;1340;-80
2024/02/14 04:37:34;;;;;;;;;;;;;;;21.45;27.35;97517.19;4857211;29;1032;-80
2024/02/14 04:40:00;;;;;;;;;;;;;;;21.45;27.57;97518.00;4870961;29;1888;-81
2024/02/14 04:42:26;;;;;;;;;;;;;;;21.48;27.32;97531.22;4873265;29;1036;-80
2024/02/14 04:44:51;;;;;;;;;;;;;;;21.56;27.27;97521.25;4922730;29;1441;-81
2024/02/14 04:47:17;;;;;;;;;;;;;;;21.36;27.55;97520.72;4932067;29;1303;-80
2024/02/14 04:49:42;;;;;;;;;;;;;;;21.46;27.81;97521.63;4946058;29;1060;-81
2024/02/14 04:52:08;;;;;;;;;;;;;;;21.70;27.19;97531.28;4948340;29;954;-81
2024/02/14 04:54:34;;;;;;;;;;;;;;;21.42;27.36;97523.78;4945992;29;989;-81
2024/02/14 04:56:59;;;;;;;;;;;;;;;21.79;27.06;97539.88;4951945;29;1921;-80
2024/02/14 04:59:25;;;;;;;;;;;;;;;21.77;27.13;97536.72;4954065;28;1883;-80
2024/02/14 05:01:53;;;;;;;;;;;;;;;21.78;27.00;97532.63;5008853;28;1008;-80
2024/02/14 05:04:19;;;;;;;;;;;;;;;21.49;27.43;97532.03;4990978;28;1120;-80
2024/02/14 05:06:44;;;;;;;;;;;;;;;21.39;27.53;97533.16;5040525;28;910;-81
2024/02/14 05:09:14;;;;;;;;;;;;;;;21.43;27.54;97537.47;5044456;28;961;-80
2024/02/14 05:11:40;;;;;;;;;;;;;;;21.35;27.73;97540.97;5046230;28;963;-80
2024/02/14 05:14:06;;;;;;;;;;;;;;;21.47;27.67;97537.34;5042808;28;910;-81
2024/02/14 05:16:31;;;;;;;;;;;;;;;21.68;27.29;97544.34;5045802;28;845;-81
2024/02/14 05:18:57;;;;;;;;;;;;;;;21.95;26.99;97546.63;5026904;28;1953;-80
2024/02/14 05:21:22;;;;;;;;;;;;;;;21.68;27.13;97550.78;5046006;28;876;-80
2024/02/14 05:23:48;;;;;;;;;;;;;;;21.06;28.07;97558.84;5044132;28;771;-79
2024/02/14 05:26:14;;;;;;;;;;;;;;;20.94;28.22;97565.31;5045429;28;910;-79
2024/02/14 05:28:39;;;;;;;;;;;;;;;20.98;28.46;97571.63;5021306;28;1222;-80
2024/02/14 05:31:05;;;;;;;;;;;;;;;21.54;27.38;97573.91;5007766;28;938;-81
2024/02/14 05:33:30;;;;;;;;;;;;;;;21.53;27.40;97578.00;5004549;28;1229;-80
2024/02/14 05:35:56;;;;;;;;;;;;;;;21.61;27.26;97579.34;5023859;28;946;-80
2024/02/14 05:38:22;;;;;;;;;;;;;;;21.64;27.38;97578.44;5004726;28;920;-81
2024/02/14 05:40:47;;;;;;;;;;;;;;;21.72;26.97;97585.44;5006936;28;1965;-80
2024/02/14 05:43:13;;;;;;;;;;;;;;;21.75;27.04;97583.72;5021498;28;897;-80
2024/02/14 05:45:39;;;;;;;;;;;;;;;21.64;27.14;97589.75;5006449;28;835;-80
2024/02/14 05:48:04;;;;;;;;;;;;;;;21.46;27.15;97592.38;5005255;28;1157;-80
2024/02/14 05:50:30;;;;;;;;;;;;;;;21.63;27.11;97596.66;4990586;28;870;-80
2024/02/14 05:52:59;;;;;;;;;;;;;;;21.57;27.33;97607.78;5005321;28;902;-80
2024/02/14 05:55:24;;;;;;;;;;;;;;;21.51;27.41;97608.81;4974712;28;940;-80
2024/02/14 05:57:52;;;;;;;;;;;;;;;21.46;27.48;97615.81;4989796;28;1606;-81
2024/02/14 06:00:18;;;;;;;;;;;;;;;21.88;26.88;97623.38;5033950;28;1954;-79
2024/02/14 06:02:44;;;;;;;;;;;;;;;21.37;27.33;97629.06;5026558;28;904;-81
2024/02/14 06:05:10;;;;;;;;;;;;;;;21.30;27.60;97628.06;5043037;28;962;-80
2024/02/14 06:07:36;;;;;;;;;;;;;;;21.24;27.88;97626.19;5026593;28;864;-80
2024/02/14 06:10:02;;;;;;;;;;;;;;;21.59;27.40;97632.78;5042407;28;969;-80
2024/02/14 06:12:29;;;;;;;;;;;;;;;21.57;27.52;97626.81;5045212;28;858;-80
2024/02/14 06:14:55;;;;;;;;;;;;;;;21.56;27.64;97620.34;5042745;28;925;-80
2024/02/14 06:17:20;;;;;;;;;;;;;;;21.71;27.28;97623.50;5045233;28;924;-81
2024/02/14 06:19:46;;;;;;;;;;;;;;;21.54;27.45;97624.88;5025337;28;1976;-80
2024/02/14 06:22:12;;;;;;;;;;;;;;;21.26;27.60;97633.00;5027647;28;939;-80
2024/02/14 06:24:37;;;;;;;;;;;;;;;21.20;27.78;97634.81;5042799;28;1219;-81
2024/02/14 06:27:03;;;;;;;;;;;;;;;21.43;27.49;97647.06;5043115;28;1119;-80
2024/02/14 06:29:28;;;;;;;;;;;;;;;21.58;27.27;97642.53;5041898;28;1280;-81
2024/02/14 06:31:54;;;;;;;;;;;;;;;21.63;27.16;97650.47;5027053;28;924;-81
2024/02/14 06:34:20;;;;;;;;;;;;;;;21.42;27.65;97657.59;5025724;28;876;-80
2024/02/14 06:36:48;;;;;;;;;;;;;;;21.60;27.57;97648.53;5044954;28;814;-80
2024/02/14 06:39:14;;;;;;;;;;;;;;;21.57;27.59;97647.41;5041562;28;1910;-81
2024/02/14 06:41:40;;;;;;;;;;;;;;;21.37;27.93;97660.19;5043515;28;1207;-80
2024/02/14 06:44:05;;;;;;;;;;;;;;;21.40;27.93;97665.75;5043300;28;877;-81
2024/02/14 06:46:31;;;;;;;;;;;;;;;21.65;27.61;97669.81;5042575;28;1242;-81
2024/02/14 06:48:57;;;;;;;;;;;;;;;21.83;27.14;97679.34;5043412;28;954;-81
2024/02/14 06:51:23;;;;;;;;;;;;;;;21.79;27.36;97675.81;5025564;28;1031;-81
2024/02/14 06:53:49;;;;;;;;;;;;;;;21.84;27.01;97683.75;5042318;28;1134;-80
2024/02/14 06:56:15;;;;;;;;;;;;;;;21.43;27.70;97686.69;5027496;28;1121;-81
2024/02/14 06:58:41;;;;;;;;;;;;;;;21.42;27.66;97696.44;5026051;28;1220;-80
2024/02/14 07:01:07;;;;;;;;;;;;;;;21.29;27.58;97694.31;5027707;28;1910;-80
2024/02/14 07:03:32;;;;;;;;;;;;;;;21.51;27.56;97699.38;5024415;28;933;-81
2024/02/14 07:05:58;;;;;;;;;;;;;;;21.61;27.42;97695.44;5027471;28;1137;-81
2024/02/14 07:08:26;;;;;;;;;;;;;;;21.62;27.38;97699.84;5042557;28;937;-81
2024/02/14 07:10:51;;;;;;;;;;;;;;;21.77;27.06;97692.47;5022795;28;948;-81
2024/02/14 07:13:17;;;;;;;;;;;;;;;21.64;27.33;97697.34;5004567;28;982;-80
2024/02/14 07:15:42;;;;;;;;;;;;;;;21.36;27.82;97715.22;5022772;28;878;-80
2024/02/14 07:18:09;;;;;;;;;;;;;;;21.42;27.69;97708.53;5004504;28;972;-81
2024/02/14 07:20:35;;;;;;;;;;;;;;;21.63;27.30;97701.44;4989674;28;1910;-81
2024/02/14 07:23:01;;;;;;;;;;;;;;;21.66;27.49;97700.53;5021170;28;920;-81
2024/02/14 07:25:27;;;;;;;;;;;;;;;21.52;27.60;97720.78;5022170;28;905;-80
2024/02/14 07:27:52;;;;;;;;;;;;;;;21.01;28.38;97717.81;5004810;28;1170;-81
2024/02/14 07:30:18;;;;;;;;;;;;;;;21.26;27.83;97722.75;5004905;28;984;-81
2024/02/14 07:32:44;;;;;;;;;;;;;;;21.28;27.91;97726.69;5022164;28;916;-81
2024/02/14 07:35:10;;;;;;;;;;;;;;;21.36;28.06;97727.34;5005086;28;865;-80
2024/02/14 07:37:36;;;;;;;;;;;;;;;21.50;27.56;97732.56;4947168;29;953;-81
2024/02/14 07:40:01;;;;;;;;;;;;;;;21.53;27.35;97730.84;4946247;29;1907;-80
2024/02/14 07:42:27;;;;;;;;;;;;;;;21.59;27.16;97729.84;4964496;29;969;-81
2024/02/14 07:44:53;;;;;;;;;;;;;;;21.17;28.05;97729.06;4924106;29;1064;-81
2024/02/14 07:47:19;;;;;;;;;;;;;;;21.31;27.62;97725.84;4930080;29;1031;-80
2024/02/14 07:49:45;;;;;;;;;;;;;;;21.50;27.63;97738.22;4946132;29;1232;-81
2024/02/14 07:52:10;;;;;;;;;;;;;;;21.76;27.40;97736.22;4964237;29;1015;-81
2024/02/14 07:54:36;;;;;;;;;;;;;;;21.62;27.50;97736.66;4946432;29;1247;-81
2024/02/14 07:57:01;;;;;;;;;;;;;;;21.74;27.42;97741.53;4965588;28;932;-80
2024/02/14 07:59:27;;;;;;;;;;;;;;;21.79;27.19;97740.16;4949506;29;1883;-81
2024/02/14 08:01:53;;;;;;;;;;;;;;;21.28;27.89;97749.34;4951726;29;938;-81
2024/02/14 08:04:18;;;;;;;;;;;;;;;21.27;27.98;97753.41;4950179;29;965;-81
2024/02/14 08:06:49;;;;;;;;;;;;;;;21.13;28.22;97747.38;4951017;29;915;-81
2024/02/14 08:09:14;;;;;;;;;;;;;;;21.65;27.44;97755.56;4980375;28;958;-80
2024/02/14 08:11:40;;;;;;;;;;;;;;;21.71;27.15;97748.09;4973671;28;1171;-81
2024/02/14 08:14:06;;;;;;;;;;;;;;;21.74;27.30;97752.06;4987960;28;983;-80
2024/02/14 08:16:31;;;;;;;;;;;;;;;21.68;27.52;97760.31;5033344;28;879;-80
2024/02/14 08:18:58;;;;;;;;;;;;;;;21.68;27.21;97754.66;5044724;28;1886;-81
2024/02/14 08:21:25;;;;;;;;;;;;;;;21.49;27.66;97758.47;5046597;28;1055;-81
2024/02/14 08:23:51;;;;;;;;;;;;;;;21.23;27.82;97757.59;5044686;28;955;-80
2024/02/14 08:26:17;;;;;;;;;;;;;;;21.24;27.70;97764.84;5047394;28;993;-81
2024/02/14 08:28:42;;;;;;;;;;;;;;;21.61;27.44;97773.91;5045137;28;1148;-81
2024/02/14 08:31:11;;;;;;;;;;;;;;;21.61;27.60;97763.38;5047762;28;914;-80
2024/02/14 08:33:37;;;;;;;;;;;;;;;21.66;27.66;97779.81;5027185;28;1065;-80
2024/02/14 08:36:03;;;;;;;;;;;;;;;21.72;27.45;97772.34;5046532;28;896;-81
2024/02/14 08:38:29;;;;;;;;;;;;;;;21.55;27.58;97771.66;5044735;28;955;-81
2024/02/14 08:40:54;;;;;;;;;;;;;;;21.66;27.34;97779.81;5030356;28;1890;-81
2024/02/14 08:43:20;;;;;;;;;;;;;;;21.71;27.45;97773.59;5044344;28;982;-80
2024/02/14 08:45:45;;;;;;;;;;;;;;;21.25;27.95;97775.72;5047154;28;838;-81
2024/02/14 08:48:11;;;;;;;;;;;;;;;21.21;28.00;97780.69;5027581;28;1125;-81
2024/02/14 08:50:37;;;;;;;;;;;;;;;21.31;27.86;97782.44;5045826;28;955;-81
2024/02/14 08:53:02;;;;;;;;;;;;;;;21.53;27.71;97779.78;5028310;28;960;-81
2024/02/14 08:55:29;;;;;;;;;;;;;;;21.59;27.43;97785.66;5045413;28;1046;-81
2024/02/14 08:57:55;;;;;;;;;;;;;;;21.64;27.42;97779.44;5027895;28;1302;-81
2024/02/14 09:00:21;;;;;;;;;;;;;;;21.63;27.63;97786.38;5046347;28;1979;-81
2024/02/14 09:02:47;;;;;;;;;;;;;;;21.17;28.41;97787.69;5011052;28;923;-81
2024/02/14 09:05:13;;;;;;;;;;;;;;;21.32;28.19;97777.56;5027726;28;1108;-80
2024/02/14 09:07:39;;;;;;;;;;;;;;;21.35;27.87;97773.03;5045093;28;779;-81
2024/02/14 09:10:06;;;;;;;;;;;;;;;21.38;27.84;97769.31;5044031;28;918;-81
2024/02/14 09:12:32;;;;;;;;;;;;;;;21.54;27.47;97769.25;5024193;28;993;-81
2024/02/14 09:14:57;;;;;;;;;;;;;;;21.74;27.44;97769.03;5006706;28;1029;-81
2024/02/14 09:17:23;;;;;;;;;;;;;;;21.62;27.51;97761.34;5008544;28;953;-81
2024/02/14 09:19:49;;;;;;;;;;;;;;;21.70;27.54;97757.81;4967493;28;1985;-81
2024/02/14 09:22:21;;;;;;;;;;;;;;;21.35;28.03;97758.88;4963045;28;1195;-78
2024/02/14 09:24:47;;;;;;;;;;;;;;;20.14;29.89;97752.38;4983385;28;1030;-77
2024/02/14 09:27:13;;;;;;;;;;;;;;;19.85;30.38;97763.59;4953484;28;1089;-81
2024/02/14 09:29:39;;;;;;;;;;;;;;;19.87;30.40;97774.44;4966283;28;1074;-81
2024/02/14 09:32:04;;;;;;;;;;;;;;;20.20;30.07;97764.75;4968054;28;912;-80
2024/02/14 09:34:30;;;;;;;;;;;;;;;20.31;29.85;97756.00;4967031;28;1056;-81
2024/02/14 09:36:58;;;;;;;;;;;;;;;20.13;30.40;97767.75;4968100;28;1007;-81
2024/02/14 09:39:24;;;;;;;;;;;;;;;19.78;30.69;97764.53;4967017;28;1906;-80
2024/02/14 09:41:55;;;;;;;;;;;;;;;19.72;31.17;97766.28;4926395;29;995;-80
2024/02/14 09:44:21;;;;;;;;;;;;;;;19.69;30.96;97758.72;4922137;29;950;-80
2024/02/14 09:46:47;;;;;;;;;;;;;;;19.66;31.06;97756.75;4945082;29;965;-80
2024/02/14 09:49:13;;;;;;;;;;;;;;;19.73;30.68;97759.41;4928361;29;961;-80
2024/02/14 09:51:38;;;;;;;;;;;;;;;19.61;31.21;97748.81;4929626;29;898;-81
2024/02/14 09:54:04;;;;;;;;;;;;;;;19.62;31.21;97747.56;4943366;29;1014;-80
2024/02/14 09:56:30;;;;;;;;;;;;;;;19.40;31.23;97754.88;4889738;28;988;-80
2024/02/14 09:58:56;;;;;;;;;;;;;;;19.39;31.27;97747.66;4950507;28;1231;-80
2024/02/14 10:01:25;;;;;;;;;;;;;;;19.59;31.09;97741.97;4951206;28;1139;-80
2024/02/14 10:03:51;;;;;;;;;;;;;;;19.50;31.04;97742.56;4966391;28;972;-79
2024/02/14 10:06:23;;;;;;;;;;;;;;;19.93;31.09;97735.97;4983507;28;1013;-80
2024/02/14 10:08:50;;;;;;;;;;;;;;;20.38;30.84;97738.09;4950022;28;958;-80
2024/02/14 10:11:17;;;;;;;;;;;;;;;20.57;30.82;97740.00;4967862;28;986;-81
2024/02/14 10:13:50;;;;;;;;;;;;;;;20.76;30.91;97739.09;4961006;28;1070;-80
2024/02/14 10:16:15;;;;;;;;;;;;;;;20.74;31.01;97743.63;5003487;28;830;-81
2024/02/14 10:18:41;;;;;;;;;;;;;;;21.05;30.41;97743.97;5003303;28;859;-81
2024/02/14 10:21:08;;;;;;;;;;;;;;;20.98;30.42;97741.31;5003041;28;1979;-81
2024/02/14 10:23:34;;;;;;;;;;;;;;;20.59;31.23;97743.22;4984515;28;1665;-80
2024/02/14 10:25:59;;;;;;;;;;;;;;;20.52;31.39;97749.03;4984262;28;970;-81
2024/02/14 10:28:25;;;;;;;;;;;;;;;20.65;31.30;97747.06;4981254;28;1059;-80
2024/02/14 10:30:51;;;;;;;;;;;;;;;20.84;30.99;97747.41;4968326;28;944;-81
2024/02/14 10:33:17;;;;;;;;;;;;;;;21.23;30.58;97746.28;4981626;28;939;-80
2024/02/14 10:35:43;;;;;;;;;;;;;;;21.04;30.69;97757.31;4968082;28;942;-80
2024/02/14 10:38:09;;;;;;;;;;;;;;;21.01;30.78;97746.09;4982584;28;971;-81
2024/02/14 10:40:42;;;;;;;;;;;;;;;21.02;30.84;97747.69;4967120;28;1888;-80
2024/02/14 10:43:12;;;;;;;;;;;;;;;21.14;30.45;97746.94;4981795;28;944;-81
2024/02/14 10:45:37;;;;;;;;;;;;;;;20.94;30.66;97751.97;4967833;28;1109;-80
2024/02/14 10:48:07;;;;;;;;;;;;;;;21.30;29.72;97763.88;4982532;28;967;-81
2024/02/14 10:50:35;;;;;;;;;;;;;;;20.67;31.00;97767.19;4983219;28;1602;-80
2024/02/14 10:53:03;;;;;;;;;;;;;;;21.36;29.94;97761.28;4982399;28;915;-81
2024/02/14 10:55:29;;;;;;;;;;;;;;;21.25;30.24;97766.44;4983244;28;1482;-80
2024/02/14 10:57:55;;;;;;;;;;;;;;;21.31;30.17;97771.13;4950385;28;1157;-80
2024/02/14 11:00:21;;;;;;;;;;;;;;;21.18;30.05;97758.94;4966918;28;1915;-81
2024/02/14 11:02:47;;;;;;;;;;;;;;;21.13;30.10;97765.13;4982513;28;1204;-80
2024/02/14 11:05:14;;;;;;;;;;;;;;;21.22;29.90;97770.94;4965877;28;1187;-80
2024/02/14 11:07:46;;;;;;;;;;;;;;;20.72;30.44;97769.50;4967455;28;931;-81
2024/02/14 11:10:16;;;;;;;;;;;;;;;20.48;30.85;97768.13;4966515;28;925;-80
2024/02/14 11:12:41;;;;;;;;;;;;;;;20.99;30.41;97776.88;4967014;28;924;-81
2024/02/14 11:15:10;;;;;;;;;;;;;;;20.83;30.78;97779.72;4965909;28;960;-81
2024/02/14 11:17:37;;;;;;;;;;;;;;;21.05;30.41;97780.75;4966496;28;1118;-78
2024/02/14 11:20:14;;;;;;;;;;;;;;;21.08;30.21;97785.50;4965264;28;1981;-78
2024/02/14 11:22:39;;;;;;;;;;;;;;;21.14;29.98;97778.06;4962868;28;997;-78
2024/02/14 11:25:08;;;;;;;;;;;;;;;20.79;30.19;97779.84;4981219;28;1007;-78
2024/02/14 11:27:33;;;;;;;;;;;;;;;20.81;30.39;97783.78;4980016;28;1066;-77
2024/02/14 11:29:59;;;;;;;;;;;;;;;20.95;29.94;97793.16;4981120;28;983;-79
2024/02/14 11:32:27;;;;;;;;;;;;;;;20.74;30.51;97780.38;4984786;28;816;-78
2024/02/14 11:34:58;;;;;;;;;;;;;;;21.05;30.02;97792.06;4969560;28;1002;-78
2024/02/14 11:37:27;;;;;;;;;;;;;;;21.05;29.76;97792.06;4951042;29;996;-78
2024/02/14 11:39:53;;;;;;;;;;;;;;;21.22;29.66;97784.31;4964941;28;2030;-78
2024/02/14 11:42:20;;;;;;;;;;;;;;;21.21;29.75;97786.34;4950755;28;920;-78
2024/02/14 11:44:46;;;;;;;;;;;;;;;21.10;29.60;97788.69;4966480;28;990;-78
2024/02/14 11:47:12;;;;;;;;;;;;;;;20.70;30.24;97788.16;4935309;29;977;-78
2024/02/14 11:49:39;;;;;;;;;;;;;;;20.63;30.37;97783.50;4965854;28;934;-78
2024/02/14 11:52:05;;;;;;;;;;;;;;;20.55;30.64;97782.88;4951196;29;981;-78
2024/02/14 11:54:30;;;;;;;;;;;;;;;20.87;30.25;97783.25;4968606;28;1033;-78
2024/02/14 11:56:56;;;;;;;;;;;;;;;21.27;29.44;97792.25;4986144;28;997;-78
2024/02/14 11:59:23;;;;;;;;;;;;;;;21.15;29.65;97793.78;4968391;28;2009;-78
2024/02/14 12:01:51;;;;;;;;;;;;;;;21.24;29.53;97793.94;4969998;28;1220;-78
2024/02/14 12:04:17;;;;;;;;;;;;;;;21.24;29.31;97778.97;4968568;28;912;-78
2024/02/14 12:06:43;;;;;;;;;;;;;;;20.87;29.68;97791.75;4985850;28;991;-78
2024/02/14 12:09:12;;;;;;;;;;;;;;;20.87;29.86;97791.75;5001767;28;964;-78
2024/02/14 12:11:38;;;;;;;;;;;;;;;21.25;29.14;97781.38;5022346;28;987;-78
2024/02/14 12:14:10;;;;;;;;;;;;;;;21.04;29.84;97770.69;5003456;28;1011;-78
2024/02/14 12:16:37;;;;;;;;;;;;;;;21.30;29.27;97769.53;4985725;28;974;-78
2024/02/14 12:19:15;;;;;;;;;;;;;;;21.23;29.22;97780.22;4984153;28;1914;-78
2024/02/14 12:21:41;;;;;;;;;;;;;;;20.47;30.62;97780.69;4985766;28;967;-78
2024/02/14 12:24:09;;;;;;;;;;;;;;;20.44;30.24;97773.84;4925899;29;1260;-78
2024/02/14 12:26:36;;;;;;;;;;;;;;;20.71;29.61;97773.56;4912419;29;870;-78
2024/02/14 12:29:03;;;;;;;;;;;;;;;21.09;29.64;97767.31;4926204;29;1073;-78
2024/02/14 12:31:30;;;;;;;;;;;;;;;21.18;29.24;97773.06;4911589;29;1121;-78
2024/02/14 12:33:59;;;;;;;;;;;;;;;21.17;29.51;97770.72;4926672;29;996;-78
2024/02/14 12:36:24;;;;;;;;;;;;;;;21.11;29.47;97773.28;4928208;29;971;-78
2024/02/14 12:38:52;;;;;;;;;;;;;;;21.13;29.33;97765.13;4926289;29;952;-78
2024/02/14 12:41:18;;;;;;;;;;;;;;;20.86;29.32;97773.19;4890621;29;1919;-78
2024/02/14 12:43:44;;;;;;;;;;;;;;;20.79;29.77;97772.16;4871463;29;990;-78
2024/02/14 12:46:09;;;;;;;;;;;;;;;20.44;30.07;97770.22;4875389;29;955;-78
2024/02/14 12:48:35;;;;;;;;;;;;;;;20.65;29.64;97768.91;4890819;29;971;-79
2024/02/14 12:51:01;;;;;;;;;;;;;;;20.64;29.91;97776.59;4894133;29;1002;-78
2024/02/14 12:53:26;;;;;;;;;;;;;;;21.19;29.06;97771.88;4891289;29;949;-78
2024/02/14 12:55:52;;;;;;;;;;;;;;;21.29;28.76;97773.56;4956549;29;976;-78